sensor_id;sensor_type;location;lat;lon;timestamp;P1;durP1;ratioP1;P2;durP2;ratioP2
74042;SDS011;62384;53.600;10.040;2022-12-10T00:00:40;40.83;;;12.55;;
74042;SDS011;62384;53.600;10.040;2022-12-10T00:03:05;45.30;;;11.43;;
74042;SDS011;62384;53.600;10.040;2022-12-10T00:05:33;44.10;;;12.68;;
74042;SDS011;62384;53.600;10.040;2022-12-10T00:07:58;39.45;;;10.38;;
74042;SDS011;62384;53.600;10.040;2022-12-10T00:10:24;37.50;;;11.30;;
74042;SDS011;62384;53.600;10.040;2022-12-10T00:12:49;30.15;;;10.32;;
74042;SDS011;62384;53.600;10.040;2022-12-10T00:15:15;38.55;;;10.80;;
74042;SDS011;62384;53.600;10.040;2022-12-10T00:17:41;31.23;;;9.77;;
74042;SDS011;62384;53.600;10.040;2022-12-10T00:20:06;30.80;;;9.75;;
74042;SDS011;62384;53.600;10.040;2022-12-10T00:22:32;26.58;;;10.23;;
74042;SDS011;62384;53.600;10.040;2022-12-10T00:24:57;33.15;;;9.30;;
74042;SDS011;62384;53.600;10.040;2022-12-10T00:27:22;30.35;;;10.00;;
74042;SDS011;62384;53.600;10.040;2022-12-10T00:29:48;20.63;;;8.30;;
74042;SDS011;62384;53.600;10.040;2022-12-10T00:32:13;27.85;;;8.77;;
74042;SDS011;62384;53.600;10.040;2022-12-10T00:34:38;25.40;;;9.55;;
74042;SDS011;62384;53.600;10.040;2022-12-10T00:37:03;29.58;;;9.32;;
74042;SDS011;62384;53.600;10.040;2022-12-10T00:39:29;25.95;;;9.48;;
74042;SDS011;62384;53.600;10.040;2022-12-10T00:41:54;28.73;;;8.82;;
74042;SDS011;62384;53.600;10.040;2022-12-10T00:44:19;26.65;;;7.57;;
74042;SDS011;62384;53.600;10.040;2022-12-10T00:46:45;25.45;;;8.60;;
74042;SDS011;62384;53.600;10.040;2022-12-10T00:49:10;24.63;;;8.32;;
74042;SDS011;62384;53.600;10.040;2022-12-10T00:51:37;30.95;;;9.70;;
74042;SDS011;62384;53.600;10.040;2022-12-10T00:54:02;27.65;;;9.05;;
74042;SDS011;62384;53.600;10.040;2022-12-10T00:56:29;29.90;;;9.00;;
74042;SDS011;62384;53.600;10.040;2022-12-10T00:58:57;21.40;;;8.30;;
74042;SDS011;62384;53.600;10.040;2022-12-10T01:01:25;22.73;;;9.10;;
74042;SDS011;62384;53.600;10.040;2022-12-10T01:03:53;22.30;;;6.50;;
74042;SDS011;62384;53.600;10.040;2022-12-10T01:06:22;31.80;;;8.93;;
74042;SDS011;62384;53.600;10.040;2022-12-10T01:08:56;25.10;;;8.25;;
74042;SDS011;62384;53.600;10.040;2022-12-10T01:11:25;27.95;;;8.30;;
74042;SDS011;62384;53.600;10.040;2022-12-10T01:13:53;20.87;;;8.10;;
74042;SDS011;62384;53.600;10.040;2022-12-10T01:16:19;29.30;;;7.88;;
74042;SDS011;62384;53.600;10.040;2022-12-10T01:18:46;31.77;;;9.02;;
74042;SDS011;62384;53.600;10.040;2022-12-10T01:21:13;27.25;;;7.63;;
74042;SDS011;62384;53.600;10.040;2022-12-10T01:23:40;19.95;;;6.25;;
74042;SDS011;62384;53.600;10.040;2022-12-10T01:26:07;27.33;;;8.82;;
74042;SDS011;62384;53.600;10.040;2022-12-10T01:28:36;23.27;;;7.47;;
74042;SDS011;62384;53.600;10.040;2022-12-10T01:31:04;21.70;;;8.32;;
74042;SDS011;62384;53.600;10.040;2022-12-10T01:33:33;22.35;;;7.07;;
74042;SDS011;62384;53.600;10.040;2022-12-10T01:36:32;23.63;;;8.00;;
74042;SDS011;62384;53.600;10.040;2022-12-10T01:38:52;29.83;;;7.88;;
74042;SDS011;62384;53.600;10.040;2022-12-10T01:41:18;23.35;;;7.30;;
74042;SDS011;62384;53.600;10.040;2022-12-10T01:43:59;25.20;;;8.32;;
74042;SDS011;62384;53.600;10.040;2022-12-10T01:46:30;24.80;;;8.52;;
74042;SDS011;62384;53.600;10.040;2022-12-10T01:48:58;22.17;;;6.85;;
74042;SDS011;62384;53.600;10.040;2022-12-10T01:51:27;21.33;;;8.45;;
74042;SDS011;62384;53.600;10.040;2022-12-10T01:53:56;25.90;;;7.65;;
74042;SDS011;62384;53.600;10.040;2022-12-10T01:56:22;20.90;;;7.57;;
74042;SDS011;62384;53.600;10.040;2022-12-10T01:58:49;20.67;;;7.43;;
74042;SDS011;62384;53.600;10.040;2022-12-10T02:09:52;24.45;;;7.75;;
74042;SDS011;62384;53.600;10.040;2022-12-10T02:15:21;24.88;;;6.68;;
74042;SDS011;62384;53.600;10.040;2022-12-10T02:20:57;22.05;;;5.57;;
74042;SDS011;62384;53.600;10.040;2022-12-10T02:23:45;22.55;;;7.05;;
74042;SDS011;62384;53.600;10.040;2022-12-10T02:29:20;18.98;;;6.20;;
74042;SDS011;62384;53.600;10.040;2022-12-10T02:42:00;14.15;;;5.45;;
74042;SDS011;62384;53.600;10.040;2022-12-10T02:44:28;17.98;;;6.55;;
74042;SDS011;62384;53.600;10.040;2022-12-10T02:46:54;18.17;;;6.22;;
74042;SDS011;62384;53.600;10.040;2022-12-10T02:49:21;15.75;;;6.00;;
74042;SDS011;62384;53.600;10.040;2022-12-10T02:51:48;22.92;;;6.43;;
74042;SDS011;62384;53.600;10.040;2022-12-10T03:04:16;10.10;;;4.40;;
74042;SDS011;62384;53.600;10.040;2022-12-10T03:07:16;14.88;;;5.05;;
74042;SDS011;62384;53.600;10.040;2022-12-10T03:09:54;16.92;;;4.82;;
74042;SDS011;62384;53.600;10.040;2022-12-10T03:12:28;13.35;;;5.10;;
74042;SDS011;62384;53.600;10.040;2022-12-10T03:14:58;17.20;;;6.03;;
74042;SDS011;62384;53.600;10.040;2022-12-10T03:17:25;17.17;;;5.80;;
74042;SDS011;62384;53.600;10.040;2022-12-10T03:19:53;15.70;;;5.60;;
74042;SDS011;62384;53.600;10.040;2022-12-10T03:22:20;19.10;;;6.60;;
74042;SDS011;62384;53.600;10.040;2022-12-10T03:24:45;18.40;;;6.57;;
74042;SDS011;62384;53.600;10.040;2022-12-10T03:27:12;13.73;;;5.00;;
74042;SDS011;62384;53.600;10.040;2022-12-10T03:29:42;15.50;;;4.50;;
74042;SDS011;62384;53.600;10.040;2022-12-10T03:32:11;9.43;;;4.25;;
74042;SDS011;62384;53.600;10.040;2022-12-10T03:34:37;11.98;;;4.78;;
74042;SDS011;62384;53.600;10.040;2022-12-10T03:37:03;9.50;;;4.20;;
74042;SDS011;62384;53.600;10.040;2022-12-10T03:39:30;12.25;;;5.38;;
74042;SDS011;62384;53.600;10.040;2022-12-10T03:41:56;14.38;;;5.32;;
74042;SDS011;62384;53.600;10.040;2022-12-10T03:44:31;11.85;;;4.55;;
74042;SDS011;62384;53.600;10.040;2022-12-10T03:46:58;13.50;;;4.65;;
74042;SDS011;62384;53.600;10.040;2022-12-10T03:49:24;14.25;;;5.45;;
74042;SDS011;62384;53.600;10.040;2022-12-10T03:51:50;12.68;;;4.80;;
74042;SDS011;62384;53.600;10.040;2022-12-10T03:54:15;10.40;;;5.13;;
74042;SDS011;62384;53.600;10.040;2022-12-10T03:56:40;11.77;;;5.35;;
74042;SDS011;62384;53.600;10.040;2022-12-10T03:59:06;12.80;;;5.68;;
74042;SDS011;62384;53.600;10.040;2022-12-10T04:01:31;12.57;;;5.10;;
74042;SDS011;62384;53.600;10.040;2022-12-10T04:03:56;15.75;;;5.72;;
74042;SDS011;62384;53.600;10.040;2022-12-10T04:06:22;14.98;;;5.85;;
74042;SDS011;62384;53.600;10.040;2022-12-10T04:08:47;13.43;;;4.63;;
74042;SDS011;62384;53.600;10.040;2022-12-10T04:11:13;11.95;;;5.45;;
74042;SDS011;62384;53.600;10.040;2022-12-10T04:13:40;13.88;;;5.90;;
74042;SDS011;62384;53.600;10.040;2022-12-10T04:16:24;18.88;;;6.10;;
74042;SDS011;62384;53.600;10.040;2022-12-10T04:18:53;12.05;;;5.07;;
74042;SDS011;62384;53.600;10.040;2022-12-10T04:21:23;10.40;;;5.20;;
74042;SDS011;62384;53.600;10.040;2022-12-10T04:24:08;10.70;;;4.80;;
74042;SDS011;62384;53.600;10.040;2022-12-10T04:26:54;11.43;;;4.55;;
74042;SDS011;62384;53.600;10.040;2022-12-10T04:29:22;16.08;;;5.20;;
74042;SDS011;62384;53.600;10.040;2022-12-10T04:31:48;15.73;;;5.28;;
74042;SDS011;62384;53.600;10.040;2022-12-10T04:34:14;12.55;;;5.63;;
74042;SDS011;62384;53.600;10.040;2022-12-10T04:36:39;8.63;;;4.55;;
74042;SDS011;62384;53.600;10.040;2022-12-10T04:39:04;13.63;;;4.85;;
74042;SDS011;62384;53.600;10.040;2022-12-10T04:41:29;11.55;;;5.40;;
74042;SDS011;62384;53.600;10.040;2022-12-10T04:43:58;16.17;;;5.70;;
74042;SDS011;62384;53.600;10.040;2022-12-10T04:46:23;12.63;;;5.03;;
74042;SDS011;62384;53.600;10.040;2022-12-10T04:48:48;14.77;;;5.63;;
74042;SDS011;62384;53.600;10.040;2022-12-10T04:51:13;9.38;;;4.90;;
74042;SDS011;62384;53.600;10.040;2022-12-10T04:53:39;15.52;;;5.47;;
74042;SDS011;62384;53.600;10.040;2022-12-10T04:56:04;10.43;;;4.70;;
74042;SDS011;62384;53.600;10.040;2022-12-10T04:58:31;13.32;;;5.63;;
74042;SDS011;62384;53.600;10.040;2022-12-10T05:01:07;12.80;;;5.45;;
74042;SDS011;62384;53.600;10.040;2022-12-10T05:03:34;14.52;;;5.93;;
74042;SDS011;62384;53.600;10.040;2022-12-10T05:06:00;14.57;;;4.90;;
74042;SDS011;62384;53.600;10.040;2022-12-10T05:08:30;14.60;;;5.95;;
74042;SDS011;62384;53.600;10.040;2022-12-10T05:10:55;16.90;;;4.88;;
74042;SDS011;62384;53.600;10.040;2022-12-10T05:13:25;15.27;;;6.38;;
74042;SDS011;62384;53.600;10.040;2022-12-10T05:15:51;14.00;;;5.18;;
74042;SDS011;62384;53.600;10.040;2022-12-10T05:18:16;12.38;;;4.95;;
74042;SDS011;62384;53.600;10.040;2022-12-10T05:20:41;13.68;;;5.15;;
74042;SDS011;62384;53.600;10.040;2022-12-10T05:23:07;11.40;;;5.50;;
74042;SDS011;62384;53.600;10.040;2022-12-10T05:25:57;12.07;;;5.65;;
74042;SDS011;62384;53.600;10.040;2022-12-10T05:28:23;11.68;;;5.15;;
74042;SDS011;62384;53.600;10.040;2022-12-10T05:30:49;14.75;;;5.25;;
74042;SDS011;62384;53.600;10.040;2022-12-10T05:33:14;16.77;;;5.68;;
74042;SDS011;62384;53.600;10.040;2022-12-10T05:35:39;14.23;;;6.10;;
74042;SDS011;62384;53.600;10.040;2022-12-10T05:38:05;12.35;;;4.93;;
74042;SDS011;62384;53.600;10.040;2022-12-10T05:40:34;12.60;;;5.30;;
74042;SDS011;62384;53.600;10.040;2022-12-10T05:43:00;11.38;;;5.90;;
74042;SDS011;62384;53.600;10.040;2022-12-10T05:45:25;15.20;;;5.80;;
74042;SDS011;62384;53.600;10.040;2022-12-10T05:47:50;14.43;;;5.72;;
74042;SDS011;62384;53.600;10.040;2022-12-10T05:50:15;12.70;;;6.13;;
74042;SDS011;62384;53.600;10.040;2022-12-10T05:52:41;13.73;;;5.97;;
74042;SDS011;62384;53.600;10.040;2022-12-10T05:55:06;18.15;;;6.57;;
74042;SDS011;62384;53.600;10.040;2022-12-10T05:57:31;14.75;;;5.78;;
74042;SDS011;62384;53.600;10.040;2022-12-10T05:59:57;11.05;;;5.43;;
74042;SDS011;62384;53.600;10.040;2022-12-10T06:02:22;15.00;;;5.35;;
74042;SDS011;62384;53.600;10.040;2022-12-10T06:04:47;14.43;;;5.30;;
74042;SDS011;62384;53.600;10.040;2022-12-10T06:07:12;16.48;;;5.82;;
74042;SDS011;62384;53.600;10.040;2022-12-10T06:09:38;13.45;;;5.68;;
74042;SDS011;62384;53.600;10.040;2022-12-10T06:12:03;17.48;;;7.15;;
74042;SDS011;62384;53.600;10.040;2022-12-10T06:14:28;14.32;;;6.03;;
74042;SDS011;62384;53.600;10.040;2022-12-10T06:16:54;17.80;;;6.22;;
74042;SDS011;62384;53.600;10.040;2022-12-10T06:19:19;13.32;;;6.25;;
74042;SDS011;62384;53.600;10.040;2022-12-10T06:21:44;13.10;;;5.88;;
74042;SDS011;62384;53.600;10.040;2022-12-10T06:24:10;13.90;;;5.72;;
74042;SDS011;62384;53.600;10.040;2022-12-10T06:26:35;14.60;;;4.63;;
74042;SDS011;62384;53.600;10.040;2022-12-10T06:29:01;12.15;;;5.60;;
74042;SDS011;62384;53.600;10.040;2022-12-10T06:31:26;14.68;;;6.05;;
74042;SDS011;62384;53.600;10.040;2022-12-10T06:33:51;10.93;;;5.18;;
74042;SDS011;62384;53.600;10.040;2022-12-10T06:36:18;9.27;;;5.95;;
74042;SDS011;62384;53.600;10.040;2022-12-10T06:38:43;11.82;;;5.35;;
74042;SDS011;62384;53.600;10.040;2022-12-10T06:41:10;14.88;;;6.65;;
74042;SDS011;62384;53.600;10.040;2022-12-10T06:43:37;12.80;;;5.40;;
74042;SDS011;62384;53.600;10.040;2022-12-10T06:46:06;16.23;;;6.38;;
74042;SDS011;62384;53.600;10.040;2022-12-10T06:48:32;13.27;;;5.32;;
74042;SDS011;62384;53.600;10.040;2022-12-10T06:50:57;15.55;;;6.22;;
74042;SDS011;62384;53.600;10.040;2022-12-10T06:53:23;10.85;;;5.88;;
74042;SDS011;62384;53.600;10.040;2022-12-10T06:55:48;13.85;;;5.82;;
74042;SDS011;62384;53.600;10.040;2022-12-10T06:58:13;13.77;;;5.93;;
74042;SDS011;62384;53.600;10.040;2022-12-10T07:00:39;14.75;;;6.15;;
74042;SDS011;62384;53.600;10.040;2022-12-10T07:03:04;13.55;;;5.20;;
74042;SDS011;62384;53.600;10.040;2022-12-10T07:05:30;11.52;;;4.88;;
74042;SDS011;62384;53.600;10.040;2022-12-10T07:07:55;15.10;;;5.95;;
74042;SDS011;62384;53.600;10.040;2022-12-10T07:10:20;14.32;;;5.68;;
74042;SDS011;62384;53.600;10.040;2022-12-10T07:12:46;12.82;;;4.65;;
74042;SDS011;62384;53.600;10.040;2022-12-10T07:15:11;13.50;;;6.03;;
74042;SDS011;62384;53.600;10.040;2022-12-10T07:17:37;12.55;;;6.50;;
74042;SDS011;62384;53.600;10.040;2022-12-10T07:20:02;11.60;;;5.65;;
74042;SDS011;62384;53.600;10.040;2022-12-10T07:22:27;13.38;;;6.47;;
74042;SDS011;62384;53.600;10.040;2022-12-10T07:24:53;14.07;;;6.30;;
74042;SDS011;62384;53.600;10.040;2022-12-10T07:27:18;16.05;;;6.60;;
74042;SDS011;62384;53.600;10.040;2022-12-10T07:29:43;12.85;;;5.55;;
74042;SDS011;62384;53.600;10.040;2022-12-10T07:32:11;16.90;;;6.90;;
74042;SDS011;62384;53.600;10.040;2022-12-10T07:34:37;14.32;;;6.95;;
74042;SDS011;62384;53.600;10.040;2022-12-10T07:37:02;12.05;;;6.03;;
74042;SDS011;62384;53.600;10.040;2022-12-10T07:39:27;14.07;;;6.18;;
74042;SDS011;62384;53.600;10.040;2022-12-10T07:41:53;11.82;;;5.50;;
74042;SDS011;62384;53.600;10.040;2022-12-10T07:44:19;12.75;;;5.82;;
74042;SDS011;62384;53.600;10.040;2022-12-10T07:46:46;13.15;;;5.53;;
74042;SDS011;62384;53.600;10.040;2022-12-10T07:49:11;9.30;;;4.82;;
74042;SDS011;62384;53.600;10.040;2022-12-10T07:51:37;13.80;;;4.82;;
74042;SDS011;62384;53.600;10.040;2022-12-10T07:54:03;10.68;;;4.95;;
74042;SDS011;62384;53.600;10.040;2022-12-10T07:56:28;13.02;;;5.20;;
74042;SDS011;62384;53.600;10.040;2022-12-10T07:58:54;12.18;;;5.22;;
74042;SDS011;62384;53.600;10.040;2022-12-10T08:01:22;12.60;;;5.38;;
74042;SDS011;62384;53.600;10.040;2022-12-10T08:03:50;11.65;;;5.35;;
74042;SDS011;62384;53.600;10.040;2022-12-10T08:06:17;11.80;;;5.03;;
74042;SDS011;62384;53.600;10.040;2022-12-10T08:08:44;11.25;;;4.93;;
74042;SDS011;62384;53.600;10.040;2022-12-10T08:11:09;12.40;;;5.25;;
74042;SDS011;62384;53.600;10.040;2022-12-10T08:13:36;14.77;;;5.78;;
74042;SDS011;62384;53.600;10.040;2022-12-10T08:16:02;9.20;;;4.72;;
74042;SDS011;62384;53.600;10.040;2022-12-10T08:18:29;14.73;;;5.63;;
74042;SDS011;62384;53.600;10.040;2022-12-10T08:20:55;12.77;;;4.47;;
74042;SDS011;62384;53.600;10.040;2022-12-10T08:23:20;11.23;;;4.63;;
74042;SDS011;62384;53.600;10.040;2022-12-10T08:25:45;15.07;;;5.13;;
74042;SDS011;62384;53.600;10.040;2022-12-10T08:28:11;15.80;;;5.28;;
74042;SDS011;62384;53.600;10.040;2022-12-10T08:30:36;11.25;;;5.45;;
74042;SDS011;62384;53.600;10.040;2022-12-10T08:33:01;13.70;;;5.18;;
74042;SDS011;62384;53.600;10.040;2022-12-10T08:35:27;12.82;;;4.78;;
74042;SDS011;62384;53.600;10.040;2022-12-10T08:37:53;12.07;;;5.07;;
74042;SDS011;62384;53.600;10.040;2022-12-10T08:40:18;10.13;;;4.60;;
74042;SDS011;62384;53.600;10.040;2022-12-10T08:42:43;13.00;;;5.10;;
74042;SDS011;62384;53.600;10.040;2022-12-10T08:45:08;16.55;;;5.55;;
74042;SDS011;62384;53.600;10.040;2022-12-10T08:47:34;9.82;;;4.57;;
74042;SDS011;62384;53.600;10.040;2022-12-10T08:49:59;14.32;;;5.45;;
74042;SDS011;62384;53.600;10.040;2022-12-10T08:52:24;8.38;;;4.28;;
74042;SDS011;62384;53.600;10.040;2022-12-10T08:54:50;13.07;;;5.82;;
74042;SDS011;62384;53.600;10.040;2022-12-10T08:57:15;11.82;;;4.57;;
74042;SDS011;62384;53.600;10.040;2022-12-10T08:59:40;14.65;;;4.53;;
74042;SDS011;62384;53.600;10.040;2022-12-10T09:02:07;11.65;;;4.47;;
74042;SDS011;62384;53.600;10.040;2022-12-10T09:04:35;10.00;;;4.00;;
74042;SDS011;62384;53.600;10.040;2022-12-10T09:07:00;12.52;;;5.15;;
74042;SDS011;62384;53.600;10.040;2022-12-10T09:09:26;11.25;;;4.68;;
74042;SDS011;62384;53.600;10.040;2022-12-10T09:11:52;12.82;;;5.45;;
74042;SDS011;62384;53.600;10.040;2022-12-10T09:14:17;13.98;;;5.32;;
74042;SDS011;62384;53.600;10.040;2022-12-10T09:16:42;7.05;;;3.97;;
74042;SDS011;62384;53.600;10.040;2022-12-10T09:19:08;14.90;;;4.57;;
74042;SDS011;62384;53.600;10.040;2022-12-10T09:21:34;13.23;;;4.75;;
74042;SDS011;62384;53.600;10.040;2022-12-10T09:24:00;10.40;;;4.85;;
74042;SDS011;62384;53.600;10.040;2022-12-10T09:26:25;14.35;;;5.45;;
74042;SDS011;62384;53.600;10.040;2022-12-10T09:28:51;17.88;;;5.53;;
74042;SDS011;62384;53.600;10.040;2022-12-10T09:31:18;14.52;;;5.40;;
74042;SDS011;62384;53.600;10.040;2022-12-10T09:33:44;8.85;;;4.57;;
74042;SDS011;62384;53.600;10.040;2022-12-10T09:36:10;9.48;;;4.13;;
74042;SDS011;62384;53.600;10.040;2022-12-10T09:38:37;11.93;;;4.93;;
74042;SDS011;62384;53.600;10.040;2022-12-10T09:46:04;11.20;;;4.50;;
74042;SDS011;62384;53.600;10.040;2022-12-10T09:51:28;7.95;;;4.10;;
74042;SDS011;62384;53.600;10.040;2022-12-10T09:53:56;11.43;;;4.78;;
74042;SDS011;62384;53.600;10.040;2022-12-10T09:56:28;5.97;;;3.25;;
74042;SDS011;62384;53.600;10.040;2022-12-10T09:58:56;9.38;;;4.70;;
74042;SDS011;62384;53.600;10.040;2022-12-10T10:01:25;9.57;;;3.70;;
74042;SDS011;62384;53.600;10.040;2022-12-10T10:03:54;10.32;;;3.80;;
74042;SDS011;62384;53.600;10.040;2022-12-10T10:06:20;9.57;;;3.70;;
74042;SDS011;62384;53.600;10.040;2022-12-10T10:08:47;12.70;;;4.82;;
74042;SDS011;62384;53.600;10.040;2022-12-10T10:11:18;10.20;;;3.35;;
74042;SDS011;62384;53.600;10.040;2022-12-10T10:13:49;11.15;;;4.38;;
74042;SDS011;62384;53.600;10.040;2022-12-10T10:16:24;10.83;;;4.63;;
74042;SDS011;62384;53.600;10.040;2022-12-10T10:21:22;11.55;;;3.97;;
74042;SDS011;62384;53.600;10.040;2022-12-10T10:23:50;10.10;;;4.68;;
74042;SDS011;62384;53.600;10.040;2022-12-10T10:26:15;8.98;;;4.65;;
74042;SDS011;62384;53.600;10.040;2022-12-10T10:28:41;10.88;;;3.80;;
74042;SDS011;62384;53.600;10.040;2022-12-10T10:31:12;8.32;;;3.78;;
74042;SDS011;62384;53.600;10.040;2022-12-10T10:33:51;7.65;;;4.28;;
74042;SDS011;62384;53.600;10.040;2022-12-10T10:36:35;9.77;;;4.20;;
74042;SDS011;62384;53.600;10.040;2022-12-10T10:41:43;7.05;;;3.47;;
74042;SDS011;62384;53.600;10.040;2022-12-10T10:44:15;5.35;;;2.80;;
74042;SDS011;62384;53.600;10.040;2022-12-10T10:46:44;6.97;;;3.42;;
74042;SDS011;62384;53.600;10.040;2022-12-10T10:49:31;6.65;;;3.72;;
74042;SDS011;62384;53.600;10.040;2022-12-10T10:51:58;7.18;;;3.60;;
74042;SDS011;62384;53.600;10.040;2022-12-10T10:54:49;6.53;;;3.38;;
74042;SDS011;62384;53.600;10.040;2022-12-10T10:57:33;8.10;;;3.13;;
74042;SDS011;62384;53.600;10.040;2022-12-10T11:00:17;7.22;;;3.80;;
74042;SDS011;62384;53.600;10.040;2022-12-10T11:02:45;8.55;;;3.70;;
74042;SDS011;62384;53.600;10.040;2022-12-10T11:05:23;7.60;;;3.08;;
74042;SDS011;62384;53.600;10.040;2022-12-10T11:07:57;7.28;;;3.63;;
74042;SDS011;62384;53.600;10.040;2022-12-10T11:10:25;6.68;;;3.42;;
74042;SDS011;62384;53.600;10.040;2022-12-10T11:12:55;9.40;;;3.97;;
74042;SDS011;62384;53.600;10.040;2022-12-10T11:15:44;7.55;;;3.65;;
74042;SDS011;62384;53.600;10.040;2022-12-10T11:23:41;9.27;;;4.20;;
74042;SDS011;62384;53.600;10.040;2022-12-10T11:31:31;9.60;;;3.95;;
74042;SDS011;62384;53.600;10.040;2022-12-10T11:36:48;9.98;;;4.82;;
74042;SDS011;62384;53.600;10.040;2022-12-10T11:42:25;11.07;;;4.63;;
74042;SDS011;62384;53.600;10.040;2022-12-10T11:45:02;10.07;;;4.75;;
74042;SDS011;62384;53.600;10.040;2022-12-10T11:47:44;8.30;;;4.25;;
74042;SDS011;62384;53.600;10.040;2022-12-10T11:50:14;9.48;;;3.97;;
74042;SDS011;62384;53.600;10.040;2022-12-10T11:55:50;9.45;;;4.18;;
74042;SDS011;62384;53.600;10.040;2022-12-10T12:01:28;13.43;;;5.03;;
74042;SDS011;62384;53.600;10.040;2022-12-10T12:09:25;8.40;;;4.43;;
74042;SDS011;62384;53.600;10.040;2022-12-10T12:15:01;8.55;;;4.47;;
74042;SDS011;62384;53.600;10.040;2022-12-10T12:17:34;11.23;;;4.97;;
74042;SDS011;62384;53.600;10.040;2022-12-10T12:22:57;9.05;;;4.75;;
74042;SDS011;62384;53.600;10.040;2022-12-10T12:25:31;11.52;;;5.03;;
74042;SDS011;62384;53.600;10.040;2022-12-10T12:28:04;12.60;;;5.63;;
74042;SDS011;62384;53.600;10.040;2022-12-10T12:30:36;12.55;;;5.47;;
74042;SDS011;62384;53.600;10.040;2022-12-10T12:33:50;12.93;;;5.97;;
74042;SDS011;62384;53.600;10.040;2022-12-10T12:36:02;11.05;;;5.30;;
74042;SDS011;62384;53.600;10.040;2022-12-10T12:38:46;10.88;;;4.82;;
74042;SDS011;62384;53.600;10.040;2022-12-10T12:41:26;9.60;;;4.45;;
74042;SDS011;62384;53.600;10.040;2022-12-10T12:46:43;10.05;;;5.03;;
74042;SDS011;62384;53.600;10.040;2022-12-10T12:51:45;9.40;;;4.90;;
74042;SDS011;62384;53.600;10.040;2022-12-10T12:54:16;10.52;;;5.07;;
74042;SDS011;62384;53.600;10.040;2022-12-10T12:59:11;10.98;;;4.60;;
74042;SDS011;62384;53.600;10.040;2022-12-10T13:01:51;8.73;;;4.43;;
74042;SDS011;62384;53.600;10.040;2022-12-10T13:04:18;10.55;;;4.90;;
74042;SDS011;62384;53.600;10.040;2022-12-10T13:07:08;11.70;;;4.30;;
74042;SDS011;62384;53.600;10.040;2022-12-10T13:09:52;13.48;;;5.47;;
74042;SDS011;62384;53.600;10.040;2022-12-10T13:12:52;10.82;;;4.63;;
74042;SDS011;62384;53.600;10.040;2022-12-10T13:20:46;10.57;;;4.95;;
74042;SDS011;62384;53.600;10.040;2022-12-10T13:26:23;10.43;;;4.90;;
74042;SDS011;62384;53.600;10.040;2022-12-10T13:28:51;12.07;;;5.07;;
74042;SDS011;62384;53.600;10.040;2022-12-10T13:31:32;9.35;;;4.07;;
74042;SDS011;62384;53.600;10.040;2022-12-10T13:39:11;9.18;;;4.40;;
74042;SDS011;62384;53.600;10.040;2022-12-10T13:44:49;11.93;;;5.13;;
74042;SDS011;62384;53.600;10.040;2022-12-10T13:50:00;10.90;;;4.82;;
74042;SDS011;62384;53.600;10.040;2022-12-10T13:55:38;11.80;;;5.38;;
74042;SDS011;62384;53.600;10.040;2022-12-10T14:06:47;10.65;;;4.95;;
74042;SDS011;62384;53.600;10.040;2022-12-10T14:09:19;12.32;;;6.00;;
74042;SDS011;62384;53.600;10.040;2022-12-10T14:11:53;13.20;;;5.68;;
74042;SDS011;62384;53.600;10.040;2022-12-10T14:14:24;12.80;;;5.43;;
74042;SDS011;62384;53.600;10.040;2022-12-10T14:16:55;11.48;;;6.03;;
74042;SDS011;62384;53.600;10.040;2022-12-10T14:19:20;16.35;;;5.82;;
74042;SDS011;62384;53.600;10.040;2022-12-10T14:21:51;12.27;;;5.40;;
74042;SDS011;62384;53.600;10.040;2022-12-10T14:24:27;12.85;;;5.45;;
74042;SDS011;62384;53.600;10.040;2022-12-10T14:26:59;16.17;;;5.63;;
74042;SDS011;62384;53.600;10.040;2022-12-10T14:29:30;13.27;;;5.93;;
74042;SDS011;62384;53.600;10.040;2022-12-10T14:31:55;14.05;;;6.18;;
74042;SDS011;62384;53.600;10.040;2022-12-10T14:34:23;15.68;;;6.55;;
74042;SDS011;62384;53.600;10.040;2022-12-10T14:36:51;14.90;;;6.03;;
74042;SDS011;62384;53.600;10.040;2022-12-10T14:39:27;9.70;;;4.60;;
74042;SDS011;62384;53.600;10.040;2022-12-10T14:41:58;11.70;;;4.53;;
74042;SDS011;62384;53.600;10.040;2022-12-10T14:44:26;13.10;;;5.97;;
74042;SDS011;62384;53.600;10.040;2022-12-10T14:46:57;11.38;;;5.32;;
74042;SDS011;62384;53.600;10.040;2022-12-10T14:49:28;11.25;;;5.28;;
74042;SDS011;62384;53.600;10.040;2022-12-10T14:51:55;11.52;;;5.88;;
74042;SDS011;62384;53.600;10.040;2022-12-10T14:54:27;14.95;;;6.45;;
74042;SDS011;62384;53.600;10.040;2022-12-10T14:57:03;13.02;;;5.75;;
74042;SDS011;62384;53.600;10.040;2022-12-10T14:59:48;11.38;;;6.07;;
74042;SDS011;62384;53.600;10.040;2022-12-10T15:02:22;15.27;;;4.75;;
74042;SDS011;62384;53.600;10.040;2022-12-10T15:04:52;15.82;;;5.47;;
74042;SDS011;62384;53.600;10.040;2022-12-10T15:07:22;14.25;;;6.63;;
74042;SDS011;62384;53.600;10.040;2022-12-10T15:09:51;18.13;;;5.82;;
74042;SDS011;62384;53.600;10.040;2022-12-10T15:12:25;11.25;;;5.22;;
74042;SDS011;62384;53.600;10.040;2022-12-10T15:14:55;10.57;;;5.05;;
74042;SDS011;62384;53.600;10.040;2022-12-10T15:20:29;13.43;;;5.75;;
74042;SDS011;62384;53.600;10.040;2022-12-10T15:25:31;13.18;;;6.75;;
74042;SDS011;62384;53.600;10.040;2022-12-10T15:28:25;12.77;;;5.97;;
74042;SDS011;62384;53.600;10.040;2022-12-10T15:30:55;15.60;;;5.53;;
74042;SDS011;62384;53.600;10.040;2022-12-10T15:33:28;18.58;;;6.00;;
74042;SDS011;62384;53.600;10.040;2022-12-10T15:41:54;17.63;;;7.32;;
74042;SDS011;62384;53.600;10.040;2022-12-10T15:49:45;12.20;;;6.22;;
74042;SDS011;62384;53.600;10.040;2022-12-10T15:52:12;15.90;;;7.28;;
74042;SDS011;62384;53.600;10.040;2022-12-10T15:54:38;14.95;;;6.30;;
74042;SDS011;62384;53.600;10.040;2022-12-10T15:57:11;13.73;;;6.10;;
74042;SDS011;62384;53.600;10.040;2022-12-10T15:59:38;16.15;;;6.25;;
74042;SDS011;62384;53.600;10.040;2022-12-10T16:02:23;12.90;;;5.38;;
74042;SDS011;62384;53.600;10.040;2022-12-10T16:05:12;19.85;;;6.97;;
74042;SDS011;62384;53.600;10.040;2022-12-10T16:07:37;16.15;;;6.03;;
74042;SDS011;62384;53.600;10.040;2022-12-10T16:10:03;16.38;;;6.93;;
74042;SDS011;62384;53.600;10.040;2022-12-10T16:12:29;15.60;;;5.82;;
74042;SDS011;62384;53.600;10.040;2022-12-10T16:14:56;15.85;;;7.38;;
74042;SDS011;62384;53.600;10.040;2022-12-10T16:17:24;21.05;;;7.45;;
74042;SDS011;62384;53.600;10.040;2022-12-10T16:19:51;16.63;;;6.03;;
74042;SDS011;62384;53.600;10.040;2022-12-10T16:22:18;14.90;;;5.75;;
74042;SDS011;62384;53.600;10.040;2022-12-10T16:24:43;16.52;;;6.68;;
74042;SDS011;62384;53.600;10.040;2022-12-10T16:27:11;18.20;;;6.40;;
74042;SDS011;62384;53.600;10.040;2022-12-10T16:29:38;17.25;;;6.03;;
74042;SDS011;62384;53.600;10.040;2022-12-10T16:32:03;15.15;;;6.88;;
74042;SDS011;62384;53.600;10.040;2022-12-10T16:34:29;10.85;;;5.20;;
74042;SDS011;62384;53.600;10.040;2022-12-10T16:36:55;13.02;;;4.97;;
74042;SDS011;62384;53.600;10.040;2022-12-10T16:39:20;12.23;;;6.13;;
74042;SDS011;62384;53.600;10.040;2022-12-10T16:41:51;14.95;;;5.00;;
74042;SDS011;62384;53.600;10.040;2022-12-10T16:44:17;18.13;;;6.15;;
74042;SDS011;62384;53.600;10.040;2022-12-10T16:46:43;13.85;;;6.25;;
74042;SDS011;62384;53.600;10.040;2022-12-10T16:49:08;14.80;;;5.88;;
74042;SDS011;62384;53.600;10.040;2022-12-10T16:51:33;28.50;;;9.75;;
74042;SDS011;62384;53.600;10.040;2022-12-10T16:53:59;21.35;;;7.05;;